Time;durP1;ratioP1;P1;durP2;ratioP2;P2;SDS_P1;SDS_P2;PMS_P1;PMS_P2;Temp;Humidity;BMP_temperature;BMP_pressure;BME280_temperature;BME280_humidity;BME280_pressure;Samples;Min_cycle;Max_cycle;Signal;HPM_P1;HPM_P2
2022/01/15 00:01:05;;;;;;;31.60;21.30;;;;;;;;;;6220556;23;20239;-85
2022/01/15 00:03:35;;;;;;;28.63;21.10;;;;;;;;;;6233843;23;20188;-90
2022/01/15 00:06:02;;;;;;;32.17;22.70;;;;;;;;;;6223112;23;20200;-86
2022/01/15 00:08:31;;;;;;;24.70;20.03;;;;;;;;;;6221882;23;20181;-85
2022/01/15 00:10:59;;;;;;;29.37;22.13;;;;;;;;;;6222307;23;20180;-86
2022/01/15 00:13:29;;;;;;;29.70;21.23;;;;;;;;;;6222341;23;20236;-86
2022/01/15 00:16:05;;;;;;;32.27;23.50;;;;;;;;;;6222455;23;20605;-86
2022/01/15 00:18:41;;;;;;;30.07;22.43;;;;;;;;;;6221550;23;20165;-85
2022/01/15 00:21:08;;;;;;;27.63;21.53;;;;;;;;;;6221545;23;20231;-86
2022/01/15 00:23:37;;;;;;;26.57;20.27;;;;;;;;;;6221117;23;20181;-88
2022/01/15 00:26:04;;;;;;;29.23;22.17;;;;;;;;;;6221318;23;20193;-83
2022/01/15 00:28:32;;;;;;;27.70;21.13;;;;;;;;;;6221230;23;20173;-88
2022/01/15 00:30:59;;;;;;;28.80;21.37;;;;;;;;;;6221002;23;20177;-86
2022/01/15 00:33:29;;;;;;;29.57;21.83;;;;;;;;;;6221496;23;20200;-86
2022/01/15 00:35:57;;;;;;;30.30;22.00;;;;;;;;;;6222503;23;20173;-86
2022/01/15 00:38:24;;;;;;;27.43;21.00;;;;;;;;;;6216332;23;20177;-88
2022/01/15 00:40:53;;;;;;;29.97;22.57;;;;;;;;;;6216856;23;20176;-86
2022/01/15 00:43:21;;;;;;;26.43;20.97;;;;;;;;;;6216917;23;20174;-86
2022/01/15 00:45:49;;;;;;;29.90;21.80;;;;;;;;;;6216467;23;20173;-86
2022/01/15 00:48:16;;;;;;;29.37;21.83;;;;;;;;;;6217190;23;20225;-86
2022/01/15 00:50:43;;;;;;;29.90;22.23;;;;;;;;;;6217379;23;20169;-86
2022/01/15 00:53:11;;;;;;;29.23;20.70;;;;;;;;;;6216805;23;20216;-87
2022/01/15 00:55:38;;;;;;;28.03;20.73;;;;;;;;;;6217323;23;20177;-86
2022/01/15 00:58:07;;;;;;;29.20;21.70;;;;;;;;;;6217219;23;20174;-86
2022/01/15 01:00:36;;;;;;;31.93;22.47;;;;;;;;;;6216446;23;20196;-86
2022/01/15 01:03:03;;;;;;;30.13;22.20;;;;;;;;;;6217530;23;20232;-85
2022/01/15 01:05:31;;;;;;;28.27;21.13;;;;;;;;;;6216890;23;20177;-85
2022/01/15 01:07:58;;;;;;;29.40;21.50;;;;;;;;;;6223240;23;20181;-87
2022/01/15 01:13:31;;;;;;;29.30;21.03;;;;;;;;;;6213631;23;20264;-86
2022/01/15 01:24:27;;;;;;;29.03;21.00;;;;;;;;;;6184576;23;20200;-86
2022/01/15 01:26:58;;;;;;;28.00;20.97;;;;;;;;;;6214737;23;20199;-86
2022/01/15 01:29:37;;;;;;;28.23;20.53;;;;;;;;;;6217145;23;20298;-86
2022/01/15 01:32:09;;;;;;;27.67;20.53;;;;;;;;;;6216382;23;20171;-85
2022/01/15 01:34:39;;;;;;;28.70;20.40;;;;;;;;;;6216680;23;20181;-85
2022/01/15 01:37:12;;;;;;;31.40;22.40;;;;;;;;;;6216228;23;20204;-86
2022/01/15 01:39:45;;;;;;;31.47;21.77;;;;;;;;;;6223572;23;20223;-85
2022/01/15 01:42:32;;;;;;;32.27;22.90;;;;;;;;;;6218959;23;20197;-85
2022/01/15 01:45:02;;;;;;;31.80;22.93;;;;;;;;;;6216392;23;20173;-86
2022/01/15 01:47:39;;;;;;;32.27;23.50;;;;;;;;;;6216137;23;20205;-87
2022/01/15 01:50:07;;;;;;;29.97;22.73;;;;;;;;;;6217066;23;20207;-85
2022/01/15 01:52:34;;;;;;;30.57;22.73;;;;;;;;;;6216666;23;20211;-87
2022/01/15 01:55:02;;;;;;;31.63;24.07;;;;;;;;;;6218053;23;20196;-85
2022/01/15 01:57:31;;;;;;;31.20;23.40;;;;;;;;;;6228996;23;20190;-88
2022/01/15 02:00:03;;;;;;;27.83;21.60;;;;;;;;;;6232397;23;20173;-89
2022/01/15 02:02:30;;;;;;;26.93;21.73;;;;;;;;;;6229778;23;20185;-88
2022/01/15 02:04:58;;;;;;;29.70;21.97;;;;;;;;;;6228653;23;20169;-85
2022/01/15 02:07:29;;;;;;;27.30;20.87;;;;;;;;;;6227096;23;20189;-86
2022/01/15 02:10:01;;;;;;;27.50;20.43;;;;;;;;;;6228565;23;20169;-85
2022/01/15 02:12:28;;;;;;;25.80;20.33;;;;;;;;;;6225989;23;20216;-86
2022/01/15 02:14:56;;;;;;;28.23;20.70;;;;;;;;;;6227444;23;20173;-85
2022/01/15 02:17:26;;;;;;;27.23;20.93;;;;;;;;;;6226147;23;20189;-88
2022/01/15 02:20:10;;;;;;;28.73;21.50;;;;;;;;;;6226627;23;20559;-87
2022/01/15 02:25:19;;;;;;;27.20;21.20;;;;;;;;;;6159369;23;20165;-85
2022/01/15 02:27:46;;;;;;;28.30;21.87;;;;;;;;;;6224035;23;20249;-86
2022/01/15 02:30:15;;;;;;;27.47;21.63;;;;;;;;;;6225366;23;20235;-86
2022/01/15 02:32:43;;;;;;;28.73;21.23;;;;;;;;;;6224623;23;20185;-85
2022/01/15 02:35:14;;;;;;;29.40;21.90;;;;;;;;;;6225420;23;20173;-85
2022/01/15 02:37:42;;;;;;;27.30;21.20;;;;;;;;;;6224048;23;20237;-88
2022/01/15 02:40:12;;;;;;;27.60;20.53;;;;;;;;;;6222045;23;20248;-84
2022/01/15 02:42:48;;;;;;;27.93;21.67;;;;;;;;;;6223510;23;20178;-85
2022/01/15 02:45:22;;;;;;;26.60;21.27;;;;;;;;;;6223276;23;20192;-86
2022/01/15 02:48:01;;;;;;;30.30;21.50;;;;;;;;;;6224917;23;20195;-85
2022/01/15 02:50:31;;;;;;;29.17;20.97;;;;;;;;;;6225965;23;20173;-85
2022/01/15 02:53:02;;;;;;;29.90;21.00;;;;;;;;;;6225124;23;20189;-86
2022/01/15 02:55:29;;;;;;;29.03;21.17;;;;;;;;;;6225001;23;20173;-86
2022/01/15 02:57:56;;;;;;;27.87;20.97;;;;;;;;;;6225434;23;20189;-86
2022/01/15 03:00:24;;;;;;;31.20;21.97;;;;;;;;;;6224692;23;20173;-85
2022/01/15 03:02:53;;;;;;;26.70;21.30;;;;;;;;;;6227211;23;20196;-88
2022/01/15 03:05:21;;;;;;;30.63;20.87;;;;;;;;;;6227515;23;20179;-88
2022/01/15 03:07:50;;;;;;;29.60;20.90;;;;;;;;;;6226383;23;20209;-86
2022/01/15 03:10:17;;;;;;;27.37;20.87;;;;;;;;;;6227850;23;20175;-85
2022/01/15 03:12:45;;;;;;;28.27;21.37;;;;;;;;;;6227550;23;20540;-85
2022/01/15 03:15:18;;;;;;;25.53;20.33;;;;;;;;;;6227217;23;20208;-85
2022/01/15 03:17:45;;;;;;;26.03;20.40;;;;;;;;;;6225941;23;20197;-86
2022/01/15 03:20:14;;;;;;;27.03;21.03;;;;;;;;;;6227050;23;20216;-85
2022/01/15 03:22:42;;;;;;;27.93;21.63;;;;;;;;;;6226540;23;20173;-86
2022/01/15 03:25:11;;;;;;;26.37;19.87;;;;;;;;;;6226289;23;20205;-86
2022/01/15 03:27:39;;;;;;;27.53;20.67;;;;;;;;;;6226682;23;20248;-85
2022/01/15 03:30:07;;;;;;;26.57;20.47;;;;;;;;;;6226942;23;20177;-88
2022/01/15 03:32:35;;;;;;;31.00;21.37;;;;;;;;;;6228270;23;20248;-86
2022/01/15 03:35:02;;;;;;;28.20;20.73;;;;;;;;;;6229436;23;20178;-86
2022/01/15 03:37:29;;;;;;;28.23;20.53;;;;;;;;;;6227947;23;20226;-85
2022/01/15 03:39:57;;;;;;;26.97;20.47;;;;;;;;;;6228787;23;20229;-85
2022/01/15 03:42:26;;;;;;;26.63;19.27;;;;;;;;;;6229536;23;20252;-86
2022/01/15 03:44:53;;;;;;;25.20;19.83;;;;;;;;;;6229385;23;20178;-85
2022/01/15 03:47:21;;;;;;;25.20;19.90;;;;;;;;;;6227394;23;20189;-86
2022/01/15 03:49:48;;;;;;;27.60;20.20;;;;;;;;;;6227355;23;20169;-85
2022/01/15 03:52:15;;;;;;;23.70;18.80;;;;;;;;;;6226467;23;20196;-85
2022/01/15 03:54:43;;;;;;;24.53;19.30;;;;;;;;;;6227859;23;20193;-86
2022/01/15 03:57:12;;;;;;;27.43;19.70;;;;;;;;;;6227134;23;20193;-86
2022/01/15 03:59:41;;;;;;;25.27;18.70;;;;;;;;;;6226618;23;20197;-85
2022/01/15 04:02:09;;;;;;;27.77;19.77;;;;;;;;;;6227468;23;20173;-86
2022/01/15 04:04:36;;;;;;;26.97;20.10;;;;;;;;;;6227983;23;20227;-86
2022/01/15 04:07:08;;;;;;;24.90;19.50;;;;;;;;;;6227799;23;20221;-87
2022/01/15 04:09:42;;;;;;;27.87;19.30;;;;;;;;;;6229209;23;20173;-90
2022/01/15 04:12:10;;;;;;;26.83;19.97;;;;;;;;;;6227831;23;20196;-85
2022/01/15 04:14:37;;;;;;;25.20;19.30;;;;;;;;;;6215071;23;20243;-86
2022/01/15 04:17:07;;;;;;;27.77;20.50;;;;;;;;;;6214232;23;20208;-85
2022/01/15 04:19:35;;;;;;;24.93;19.60;;;;;;;;;;6216256;23;20173;-87
2022/01/15 04:22:03;;;;;;;25.30;19.87;;;;;;;;;;6215426;23;20189;-85
2022/01/15 04:24:30;;;;;;;27.47;19.80;;;;;;;;;;6215703;23;20169;-85
2022/01/15 04:26:58;;;;;;;26.97;19.77;;;;;;;;;;6221321;23;20201;-87
2022/01/15 04:29:25;;;;;;;24.57;18.70;;;;;;;;;;6254355;23;20179;-86
2022/01/15 04:31:52;;;;;;;27.10;19.60;;;;;;;;;;6255126;23;20177;-87
2022/01/15 04:34:22;;;;;;;26.53;19.07;;;;;;;;;;6255025;23;20196;-87
2022/01/15 04:36:50;;;;;;;26.83;19.70;;;;;;;;;;6252987;23;20196;-86
2022/01/15 04:39:17;;;;;;;25.57;18.20;;;;;;;;;;6254904;23;20173;-86
2022/01/15 04:41:44;;;;;;;23.23;17.93;;;;;;;;;;6254331;23;20180;-87
2022/01/15 04:44:12;;;;;;;24.93;18.67;;;;;;;;;;6255301;23;20169;-85
2022/01/15 04:46:39;;;;;;;28.03;19.83;;;;;;;;;;6253984;23;20223;-86
2022/01/15 04:49:07;;;;;;;26.87;18.13;;;;;;;;;;6254316;23;20173;-86
2022/01/15 04:51:36;;;;;;;26.70;19.60;;;;;;;;;;6256568;23;20172;-87
2022/01/15 04:54:04;;;;;;;29.33;18.83;;;;;;;;;;6256796;23;20271;-86
2022/01/15 04:56:31;;;;;;;25.37;19.27;;;;;;;;;;6256439;23;20215;-86
2022/01/15 04:58:59;;;;;;;23.07;18.40;;;;;;;;;;6254749;23;20172;-86
2022/01/15 05:02:05;;;;;;;27.00;19.43;;;;;;;;;;6250812;23;20175;-86
2022/01/15 05:04:34;;;;;;;23.97;18.33;;;;;;;;;;6251016;23;20172;-86
2022/01/15 05:07:03;;;;;;;25.93;18.90;;;;;;;;;;6252718;23;20203;-86
2022/01/15 05:09:30;;;;;;;25.47;18.43;;;;;;;;;;6254787;23;20191;-86
2022/01/15 05:12:03;;;;;;;23.67;18.70;;;;;;;;;;6254561;23;20203;-86
2022/01/15 05:14:32;;;;;;;23.53;17.80;;;;;;;;;;6254416;23;20185;-86
2022/01/15 05:16:59;;;;;;;22.57;18.33;;;;;;;;;;6252811;23;20192;-86
2022/01/15 05:19:29;;;;;;;25.37;18.13;;;;;;;;;;6254017;23;20179;-86
2022/01/15 05:21:57;;;;;;;25.80;18.67;;;;;;;;;;6253221;23;20593;-87
2022/01/15 05:24:29;;;;;;;24.30;18.30;;;;;;;;;;6253118;23;20239;-86
2022/01/15 05:26:56;;;;;;;22.00;17.50;;;;;;;;;;6244404;23;20204;-86
2022/01/15 05:29:23;;;;;;;23.37;18.17;;;;;;;;;;6225680;23;20173;-86
2022/01/15 05:31:51;;;;;;;23.20;18.30;;;;;;;;;;6226271;23;20184;-86
2022/01/15 05:34:18;;;;;;;25.40;19.83;;;;;;;;;;6225465;23;20189;-86
2022/01/15 05:36:46;;;;;;;24.80;19.33;;;;;;;;;;6222582;23;20197;-84
2022/01/15 05:39:13;;;;;;;29.93;19.80;;;;;;;;;;6224657;23;20179;-86
2022/01/15 05:41:43;;;;;;;26.80;18.00;;;;;;;;;;6222858;23;20173;-86
2022/01/15 05:44:11;;;;;;;24.63;18.30;;;;;;;;;;6226217;23;20175;-86
2022/01/15 05:46:40;;;;;;;26.53;19.30;;;;;;;;;;6224035;23;20193;-85
2022/01/15 05:49:07;;;;;;;24.27;18.90;;;;;;;;;;6231512;23;20181;-86
2022/01/15 05:51:35;;;;;;;26.20;18.30;;;;;;;;;;6232370;23;20200;-86
2022/01/15 05:54:03;;;;;;;24.90;18.23;;;;;;;;;;6228322;23;20185;-85
2022/01/15 05:56:31;;;;;;;24.43;19.13;;;;;;;;;;6232517;23;20193;-84
2022/01/15 05:58:59;;;;;;;26.17;19.50;;;;;;;;;;6237374;23;20173;-85
2022/01/15 06:01:31;;;;;;;27.30;18.80;;;;;;;;;;6230804;23;20173;-84
2022/01/15 06:03:59;;;;;;;25.33;18.47;;;;;;;;;;6222649;23;20216;-86
2022/01/15 06:06:26;;;;;;;24.80;18.30;;;;;;;;;;6222116;23;20169;-86
2022/01/15 06:08:53;;;;;;;25.53;18.97;;;;;;;;;;6221550;23;20189;-86
2022/01/15 06:11:23;;;;;;;25.93;18.00;;;;;;;;;;6221956;23;20235;-86
2022/01/15 06:13:51;;;;;;;26.27;19.23;;;;;;;;;;6221540;23;20204;-86
2022/01/15 06:16:20;;;;;;;24.63;17.90;;;;;;;;;;6222425;23;20180;-86
2022/01/15 06:18:47;;;;;;;21.53;17.63;;;;;;;;;;6220443;23;20174;-86
2022/01/15 06:21:16;;;;;;;27.03;18.93;;;;;;;;;;6221640;23;20184;-85
2022/01/15 06:23:44;;;;;;;24.83;17.70;;;;;;;;;;6221204;23;20625;-86
2022/01/15 06:26:11;;;;;;;25.30;17.57;;;;;;;;;;6222199;23;20196;-85
2022/01/15 06:28:39;;;;;;;25.07;18.67;;;;;;;;;;6221418;23;20180;-86
2022/01/15 06:31:06;;;;;;;25.60;18.63;;;;;;;;;;6221505;23;20173;-86
2022/01/15 06:33:35;;;;;;;25.50;18.73;;;;;;;;;;6221292;23;20177;-85
2022/01/15 06:36:02;;;;;;;24.63;18.93;;;;;;;;;;6221199;23;20243;-86
2022/01/15 06:38:30;;;;;;;24.33;17.93;;;;;;;;;;6222502;23;20189;-86
2022/01/15 06:41:00;;;;;;;25.33;18.83;;;;;;;;;;6222950;23;20173;-86
2022/01/15 06:43:27;;;;;;;25.27;18.93;;;;;;;;;;6223080;23;20173;-86
2022/01/15 06:45:54;;;;;;;24.67;18.43;;;;;;;;;;6222883;23;20223;-85
2022/01/15 06:48:24;;;;;;;25.37;19.27;;;;;;;;;;6221849;23;20219;-85
2022/01/15 06:50:53;;;;;;;27.13;19.70;;;;;;;;;;6222838;23;20186;-85
2022/01/15 06:53:23;;;;;;;27.93;20.70;;;;;;;;;;6223168;23;20169;-86
2022/01/15 06:55:52;;;;;;;28.77;22.07;;;;;;;;;;6223052;23;20199;-85
2022/01/15 06:58:22;;;;;;;28.50;21.00;;;;;;;;;;6221407;23;20206;-86
2022/01/15 07:00:50;;;;;;;48.17;32.17;;;;;;;;;;6222790;23;20169;-84
2022/01/15 07:03:17;;;;;;;30.43;22.93;;;;;;;;;;6222874;23;20170;-86
2022/01/15 07:05:45;;;;;;;29.90;21.03;;;;;;;;;;6224411;23;20192;-86
2022/01/15 07:08:13;;;;;;;30.33;22.13;;;;;;;;;;6223235;23;20193;-86
2022/01/15 07:10:43;;;;;;;30.10;21.80;;;;;;;;;;6225920;23;20173;-86
2022/01/15 07:13:11;;;;;;;28.30;20.27;;;;;;;;;;6223601;23;20173;-84
2022/01/15 07:15:38;;;;;;;27.30;20.33;;;;;;;;;;6225997;23;20189;-87
2022/01/15 07:18:06;;;;;;;28.47;21.23;;;;;;;;;;6227015;23;20207;-85
2022/01/15 07:20:35;;;;;;;30.40;21.90;;;;;;;;;;6229559;23;20173;-87
2022/01/15 07:23:06;;;;;;;30.80;21.33;;;;;;;;;;6229570;23;20236;-84
2022/01/15 07:25:37;;;;;;;28.37;20.90;;;;;;;;;;6230493;23;20220;-85
2022/01/15 07:28:06;;;;;;;28.47;21.10;;;;;;;;;;6225560;23;20279;-85
2022/01/15 07:30:34;;;;;;;29.30;21.80;;;;;;;;;;6222275;23;20177;-85
2022/01/15 07:33:02;;;;;;;30.03;20.80;;;;;;;;;;6223732;23;20204;-83
2022/01/15 07:35:29;;;;;;;29.83;22.03;;;;;;;;;;6223878;23;20193;-84
2022/01/15 07:37:57;;;;;;;32.93;21.53;;;;;;;;;;6222533;23;20216;-85
2022/01/15 07:40:26;;;;;;;27.50;20.63;;;;;;;;;;6223275;23;20577;-85
2022/01/15 07:42:55;;;;;;;31.73;21.03;;;;;;;;;;6223036;23;20184;-85
2022/01/15 07:45:25;;;;;;;29.13;20.97;;;;;;;;;;6224019;23;20356;-84
2022/01/15 07:47:53;;;;;;;29.53;20.67;;;;;;;;;;6222967;23;20194;-85
2022/01/15 07:50:23;;;;;;;27.43;20.93;;;;;;;;;;6224238;23;20173;-85
2022/01/15 07:52:51;;;;;;;27.77;20.40;;;;;;;;;;6224392;23;20169;-86
2022/01/15 07:55:18;;;;;;;27.07;20.43;;;;;;;;;;6221530;23;20216;-86
2022/01/15 07:57:49;;;;;;;29.47;20.63;;;;;;;;;;6220710;23;20193;-85
2022/01/15 08:00:18;;;;;;;28.63;20.87;;;;;;;;;;6222572;23;20181;-85
2022/01/15 08:02:46;;;;;;;33.90;21.10;;;;;;;;;;6223734;23;20173;-86
2022/01/15 08:16:07;;;;;;;29.10;20.17;;;;;;;;;;6206115;23;20228;-84
2022/01/15 08:18:34;;;;;;;32.10;20.50;;;;;;;;;;6218512;23;20193;-86
2022/01/15 08:21:05;;;;;;;32.93;21.13;;;;;;;;;;6217531;23;20177;-85
2022/01/15 08:23:39;;;;;;;29.90;21.77;;;;;;;;;;6219692;23;20221;-85
2022/01/15 08:26:15;;;;;;;29.70;21.90;;;;;;;;;;6218851;23;20175;-85
2022/01/15 08:31:34;;;;;;;38.17;24.63;;;;;;;;;;6217555;23;20249;-84
2022/01/15 08:36:54;;;;;;;35.87;24.20;;;;;;;;;;6213854;23;20280;-84
2022/01/15 08:39:23;;;;;;;42.90;25.33;;;;;;;;;;6219396;23;20173;-84
2022/01/15 08:42:07;;;;;;;34.03;22.87;;;;;;;;;;6218092;23;20169;-85
2022/01/15 08:44:36;;;;;;;31.67;23.03;;;;;;;;;;6219558;23;20169;-86
2022/01/15 08:47:05;;;;;;;30.97;21.23;;;;;;;;;;6219942;23;20193;-85
2022/01/15 08:49:32;;;;;;;30.17;21.00;;;;;;;;;;6222197;23;20173;-85
2022/01/15 08:52:02;;;;;;;30.80;21.97;;;;;;;;;;6221804;23;20227;-85
2022/01/15 08:54:29;;;;;;;27.43;20.60;;;;;;;;;;6223750;23;20195;-84
2022/01/15 08:56:56;;;;;;;29.63;21.50;;;;;;;;;;6222343;23;20197;-85
2022/01/15 08:59:36;;;;;;;28.37;21.63;;;;;;;;;;6223095;23;20174;-87
2022/01/15 09:02:05;;;;;;;28.07;21.63;;;;;;;;;;6224702;23;20178;-86
2022/01/15 09:04:33;;;;;;;30.40;21.90;;;;;;;;;;6229754;23;20169;-85
2022/01/15 09:07:01;;;;;;;30.67;20.93;;;;;;;;;;6233095;23;20193;-86
2022/01/15 09:09:28;;;;;;;27.97;21.00;;;;;;;;;;6232999;23;20185;-86
2022/01/15 09:11:55;;;;;;;27.37;20.83;;;;;;;;;;6221952;23;20169;-85
2022/01/15 09:14:23;;;;;;;30.93;21.50;;;;;;;;;;6219362;23;20185;-86
2022/01/15 09:16:55;;;;;;;27.20;21.57;;;;;;;;;;6219367;23;20216;-86
2022/01/15 09:19:31;;;;;;;26.97;21.43;;;;;;;;;;6220307;23;20196;-86
2022/01/15 09:22:01;;;;;;;26.07;20.00;;;;;;;;;;6220506;23;20169;-88
2022/01/15 09:24:28;;;;;;;23.73;19.93;;;;;;;;;;6218333;23;20196;-84
2022/01/15 09:30:12;;;;;;;27.87;20.63;;;;;;;;;;6217263;23;20254;-85
2022/01/15 09:32:38;;;;;;;23.67;19.47;;;;;;;;;;6218601;23;20196;-84
2022/01/15 09:35:08;;;;;;;22.87;19.50;;;;;;;;;;6219628;23;20189;-88
2022/01/15 09:37:37;;;;;;;25.13;19.97;;;;;;;;;;6223279;23;20216;-84
2022/01/15 09:40:09;;;;;;;25.67;20.70;;;;;;;;;;6223708;23;20173;-84
2022/01/15 09:42:57;;;;;;;23.17;20.03;;;;;;;;;;6225300;23;20180;-85
2022/01/15 09:45:25;;;;;;;23.63;18.87;;;;;;;;;;6222815;23;20168;-84
2022/01/15 09:47:56;;;;;;;21.87;18.60;;;;;;;;;;6224411;23;20279;-82
2022/01/15 09:50:25;;;;;;;25.80;19.67;;;;;;;;;;6227728;23;20225;-86
2022/01/15 09:52:54;;;;;;;26.03;18.63;;;;;;;;;;6222645;23;20178;-84
2022/01/15 09:55:21;;;;;;;25.90;21.17;;;;;;;;;;6225662;23;20212;-86
2022/01/15 09:57:50;;;;;;;26.43;19.83;;;;;;;;;;6220883;23;20243;-82
2022/01/15 10:00:27;;;;;;;24.63;20.43;;;;;;;;;;6220610;23;20185;-86
2022/01/15 10:02:59;;;;;;;24.00;19.20;;;;;;;;;;6219648;23;20173;-86
2022/01/15 10:05:28;;;;;;;24.53;20.27;;;;;;;;;;6219625;23;20168;-84
2022/01/15 10:07:56;;;;;;;25.93;20.30;;;;;;;;;;6216991;23;20195;-83
2022/01/15 10:10:25;;;;;;;22.33;18.60;;;;;;;;;;6218986;23;20227;-85
2022/01/15 10:12:53;;;;;;;23.23;20.17;;;;;;;;;;6218793;23;20176;-87
2022/01/15 10:15:20;;;;;;;21.60;19.17;;;;;;;;;;6218221;23;20220;-86
2022/01/15 10:17:48;;;;;;;24.17;19.80;;;;;;;;;;6216251;23;20193;-87
2022/01/15 10:20:18;;;;;;;22.37;18.57;;;;;;;;;;6216461;23;20169;-87
2022/01/15 10:22:48;;;;;;;24.57;20.17;;;;;;;;;;6217793;23;20180;-86
2022/01/15 10:25:19;;;;;;;22.53;18.90;;;;;;;;;;6217555;23;20197;-87
2022/01/15 10:27:47;;;;;;;21.47;19.17;;;;;;;;;;6215141;23;20292;-84
2022/01/15 10:33:37;;;;;;;24.20;19.47;;;;;;;;;;6067625;23;20246;-89
2022/01/15 10:36:18;;;;;;;24.07;19.90;;;;;;;;;;6065348;23;20240;-85
2022/01/15 10:38:53;;;;;;;22.40;19.83;;;;;;;;;;6167240;23;20190;-87
2022/01/15 10:41:43;;;;;;;25.07;19.47;;;;;;;;;;6187555;23;20181;-86
2022/01/15 10:44:39;;;;;;;20.43;18.10;;;;;;;;;;6186616;23;20204;-87
2022/01/15 10:47:07;;;;;;;20.63;18.40;;;;;;;;;;6185002;23;20249;-84
2022/01/15 10:49:41;;;;;;;22.63;19.73;;;;;;;;;;6187075;23;20232;-85
2022/01/15 10:52:12;;;;;;;23.27;19.43;;;;;;;;;;6186046;23;20284;-86
2022/01/15 10:55:20;;;;;;;23.57;19.00;;;;;;;;;;6186706;23;20258;-86
2022/01/15 10:57:57;;;;;;;23.83;19.30;;;;;;;;;;6142787;23;20223;-85
2022/01/15 11:00:42;;;;;;;23.27;18.70;;;;;;;;;;6186957;23;20709;-89
2022/01/15 11:09:06;;;;;;;20.37;17.77;;;;;;;;;;6192303;23;20186;-91
2022/01/15 11:11:35;;;;;;;21.57;18.80;;;;;;;;;;6190786;23;20621;-89
2022/01/15 11:14:09;;;;;;;20.73;18.07;;;;;;;;;;6187953;23;20517;-90
2022/01/15 11:16:42;;;;;;;20.97;17.77;;;;;;;;;;6189499;23;20193;-87
2022/01/15 11:19:09;;;;;;;19.33;17.10;;;;;;;;;;6189333;23;20224;-87
2022/01/15 11:21:37;;;;;;;19.97;16.73;;;;;;;;;;6186278;23;20174;-85
2022/01/15 11:24:06;;;;;;;21.57;17.50;;;;;;;;;;6188379;23;20197;-86
2022/01/15 11:29:16;;;;;;;22.13;18.33;;;;;;;;;;6226659;23;20173;-87
2022/01/15 11:31:44;;;;;;;22.27;17.17;;;;;;;;;;6231762;23;20170;-88
2022/01/15 11:34:16;;;;;;;20.83;17.27;;;;;;;;;;6236643;23;20196;-87
2022/01/15 11:36:44;;;;;;;20.33;17.00;;;;;;;;;;6237000;23;20201;-89
2022/01/15 11:39:15;;;;;;;23.70;17.77;;;;;;;;;;6239936;23;20176;-93
2022/01/15 11:41:43;;;;;;;22.03;18.40;;;;;;;;;;6227306;23;20161;-86
2022/01/15 11:44:17;;;;;;;21.13;18.27;;;;;;;;;;6220116;23;20235;-88
2022/01/15 11:46:52;;;;;;;20.30;17.77;;;;;;;;;;6215804;23;20193;-85
2022/01/15 11:49:29;;;;;;;22.27;18.40;;;;;;;;;;6218272;23;20219;-87
2022/01/15 11:51:59;;;;;;;21.20;18.60;;;;;;;;;;6216849;23;20173;-86
2022/01/15 11:54:26;;;;;;;21.50;17.57;;;;;;;;;;6218430;23;20184;-88
2022/01/15 11:56:54;;;;;;;21.03;17.40;;;;;;;;;;6218373;23;20201;-84
2022/01/15 11:59:40;;;;;;;22.00;17.30;;;;;;;;;;6221982;23;20173;-85
2022/01/15 12:02:25;;;;;;;19.60;17.37;;;;;;;;;;6224073;23;20166;-85
2022/01/15 12:04:53;;;;;;;22.70;17.83;;;;;;;;;;6224597;23;20219;-84
2022/01/15 12:07:21;;;;;;;21.57;17.47;;;;;;;;;;6222938;23;20194;-85
2022/01/15 12:09:49;;;;;;;19.50;17.27;;;;;;;;;;6222581;23;20180;-86
2022/01/15 12:12:40;;;;;;;20.53;17.17;;;;;;;;;;6223260;23;20228;-86
2022/01/15 12:15:10;;;;;;;18.83;15.90;;;;;;;;;;6222895;23;20678;-85
2022/01/15 12:17:39;;;;;;;21.03;17.70;;;;;;;;;;6222168;23;20213;-86
2022/01/15 12:20:08;;;;;;;19.60;17.03;;;;;;;;;;6220047;23;20239;-87
2022/01/15 12:22:36;;;;;;;22.87;18.87;;;;;;;;;;6220866;23;20177;-87
2022/01/15 12:25:12;;;;;;;21.80;18.60;;;;;;;;;;6220632;23;20181;-89
2022/01/15 12:27:49;;;;;;;21.63;19.00;;;;;;;;;;6218858;23;20200;-90
2022/01/15 12:30:29;;;;;;;22.40;17.97;;;;;;;;;;6219871;23;20153;-88
2022/01/15 12:33:12;;;;;;;23.27;18.10;;;;;;;;;;6218859;23;20169;-88
2022/01/15 12:35:40;;;;;;;22.40;18.40;;;;;;;;;;6217976;23;20182;-89
2022/01/15 12:41:16;;;;;;;22.10;19.30;;;;;;;;;;6174853;23;20173;-85
2022/01/15 12:43:44;;;;;;;22.90;19.73;;;;;;;;;;6219466;23;20176;-85
2022/01/15 12:46:12;;;;;;;24.97;21.10;;;;;;;;;;6221182;23;20173;-87
2022/01/15 12:48:46;;;;;;;26.80;22.13;;;;;;;;;;6219555;23;20185;-88
2022/01/15 12:51:14;;;;;;;26.93;23.10;;;;;;;;;;6220996;23;20188;-87
2022/01/15 12:53:42;;;;;;;27.47;22.57;;;;;;;;;;6224436;23;20173;-85
2022/01/15 12:56:12;;;;;;;25.23;21.83;;;;;;;;;;6222317;23;20264;-85
2022/01/15 12:58:53;;;;;;;26.07;22.00;;;;;;;;;;6222029;23;20251;-87
2022/01/15 13:01:22;;;;;;;24.70;21.40;;;;;;;;;;6218977;23;20162;-86
2022/01/15 13:03:56;;;;;;;27.07;22.73;;;;;;;;;;6219967;23;20684;-83
2022/01/15 13:06:33;;;;;;;26.00;22.37;;;;;;;;;;6220824;23;20263;-86
2022/01/15 13:11:59;;;;;;;26.93;22.63;;;;;;;;;;6216567;23;20177;-85
2022/01/15 13:14:50;;;;;;;26.17;22.70;;;;;;;;;;6220973;23;20166;-86
2022/01/15 13:17:24;;;;;;;29.93;23.07;;;;;;;;;;6221398;23;20193;-87
2022/01/15 13:19:53;;;;;;;28.57;22.20;;;;;;;;;;6229572;23;20175;-86
2022/01/15 13:22:21;;;;;;;29.27;23.17;;;;;;;;;;6216350;23;20229;-83
2022/01/15 13:24:48;;;;;;;28.03;22.93;;;;;;;;;;6219589;23;20177;-84
2022/01/15 13:27:21;;;;;;;28.87;23.37;;;;;;;;;;6227106;23;20251;-86
2022/01/15 13:29:48;;;;;;;28.93;23.07;;;;;;;;;;6229348;23;20200;-84
2022/01/15 13:32:16;;;;;;;28.83;22.50;;;;;;;;;;6229639;23;20173;-86
2022/01/15 13:34:48;;;;;;;30.20;22.87;;;;;;;;;;6228738;23;20668;-85
2022/01/15 13:37:20;;;;;;;30.43;23.30;;;;;;;;;;6226457;23;20200;-88
2022/01/15 13:39:49;;;;;;;28.23;22.57;;;;;;;;;;6219362;23;20166;-87
2022/01/15 13:42:20;;;;;;;29.50;23.97;;;;;;;;;;6231915;23;20180;-88
2022/01/15 13:47:44;;;;;;;29.30;23.63;;;;;;;;;;6213517;23;20237;-88
2022/01/15 13:53:35;;;;;;;31.37;23.70;;;;;;;;;;6221899;23;20184;-89
2022/01/15 13:56:31;;;;;;;36.97;26.20;;;;;;;;;;6220031;23;20193;-88
2022/01/15 14:02:03;;;;;;;32.37;25.53;;;;;;;;;;6219333;23;20243;-85
2022/01/15 14:04:53;;;;;;;35.30;24.97;;;;;;;;;;6221407;23;20172;-88
2022/01/15 14:07:37;;;;;;;34.10;25.00;;;;;;;;;;6218726;23;20252;-88
2022/01/15 14:10:22;;;;;;;37.53;25.60;;;;;;;;;;6218579;23;20192;-86
2022/01/15 14:13:20;;;;;;;34.97;25.47;;;;;;;;;;6217533;23;20169;-88
2022/01/15 14:15:56;;;;;;;36.73;25.60;;;;;;;;;;6218478;23;20195;-88
2022/01/15 14:18:30;;;;;;;34.73;25.40;;;;;;;;;;6220000;23;20243;-86
2022/01/15 14:26:57;;;;;;;36.23;26.00;;;;;;;;;;6194274;23;20197;-87
2022/01/15 14:29:42;;;;;;;36.60;25.63;;;;;;;;;;6221810;23;20177;-86
2022/01/15 14:35:07;;;;;;;38.43;26.83;;;;;;;;;;6208539;23;20204;-86
2022/01/15 14:37:41;;;;;;;37.53;25.63;;;;;;;;;;6217661;23;20203;-86
2022/01/15 14:40:17;;;;;;;40.00;27.93;;;;;;;;;;6218180;23;20173;-88
2022/01/15 14:43:03;;;;;;;38.10;26.10;;;;;;;;;;6218019;23;20173;-86
2022/01/15 14:48:46;;;;;;;38.83;26.23;;;;;;;;;;6174644;23;20264;-87
2022/01/15 14:51:28;;;;;;;35.73;26.07;;;;;;;;;;6217197;23;20172;-87
2022/01/15 14:54:00;;;;;;;36.00;26.20;;;;;;;;;;6218272;23;20176;-87
2022/01/15 14:56:28;;;;;;;37.77;25.80;;;;;;;;;;6221184;23;20196;-87
2022/01/15 14:58:59;;;;;;;37.47;26.20;;;;;;;;;;6220309;23;20258;-86
2022/01/15 15:01:27;;;;;;;37.57;25.73;;;;;;;;;;6220230;23;20529;-85
2022/01/15 15:04:00;;;;;;;38.70;26.10;;;;;;;;;;6219918;23;20179;-87
2022/01/15 15:06:39;;;;;;;;;;;;;;;;;;;;;
2022/01/15 15:09:07;;;;;;;35.23;24.57;;;;;;;;;;6219929;23;20228;-86
2022/01/15 15:11:39;;;;;;;37.07;25.93;;;;;;;;;;6220893;23;20203;-87
2022/01/15 15:14:07;;;;;;;38.20;26.27;;;;;;;;;;6220979;23;20193;-86
2022/01/15 15:16:39;;;;;;;37.03;26.87;;;;;;;;;;6221712;23;20193;-88
2022/01/15 15:19:07;;;;;;;41.80;28.70;;;;;;;;;;6224456;23;20173;-86
2022/01/15 15:21:36;;;;;;;39.27;27.23;;;;;;;;;;6220865;23;20173;-86
2022/01/15 15:24:07;;;;;;;44.80;28.73;;;;;;;;;;6222910;23;20173;-87
2022/01/15 15:26:38;;;;;;;41.87;28.57;;;;;;;;;;6221909;23;20276;-89
2022/01/15 15:29:06;;;;;;;42.17;29.23;;;;;;;;;;6220320;23;20187;-87
2022/01/15 15:31:41;;;;;;;41.90;28.17;;;;;;;;;;6220609;23;20170;-87
2022/01/15 15:34:55;;;;;;;41.70;29.63;;;;;;;;;;6221309;23;20176;-88
2022/01/15 15:37:26;;;;;;;44.87;30.03;;;;;;;;;;6217363;23;20251;-85
2022/01/15 15:39:59;;;;;;;45.80;29.10;;;;;;;;;;6227441;23;20153;-85
2022/01/15 15:42:28;;;;;;;43.73;29.87;;;;;;;;;;6228430;23;20180;-85
2022/01/15 15:44:55;;;;;;;44.70;31.20;;;;;;;;;;6226232;23;20173;-86
2022/01/15 15:47:24;;;;;;;43.40;30.57;;;;;;;;;;6226469;23;20247;-84
2022/01/15 15:49:53;;;;;;;49.03;31.93;;;;;;;;;;6227313;23;20177;-85
2022/01/15 15:52:21;;;;;;;43.07;31.37;;;;;;;;;;6225304;23;20173;-86